sensor_id;sensor_type;location;lat;lon;timestamp;pressure;altitude;pressure_sealevel;temperature;humidity
43683;BME280;29285;52.128;21.060;2023-02-13T00:00:32;102019.19;;;4.16;100.00
43683;BME280;29285;52.128;21.060;2023-02-13T00:05:53;102016.67;;;4.18;100.00
43683;BME280;29285;52.128;21.060;2023-02-13T00:10:54;102014.59;;;4.12;100.00
43683;BME280;29285;52.128;21.060;2023-02-13T00:15:55;102016.88;;;4.09;100.00
43683;BME280;29285;52.128;21.060;2023-02-13T00:20:57;102015.11;;;4.08;100.00
43683;BME280;29285;52.128;21.060;2023-02-13T00:25:59;102012.88;;;4.13;100.00
43683;BME280;29285;52.128;21.060;2023-02-13T00:31:04;102020.08;;;4.17;100.00
43683;BME280;29285;52.128;21.060;2023-02-13T00:41:07;101997.16;;;4.15;100.00
43683;BME280;29285;52.128;21.060;2023-02-13T00:46:08;101990.45;;;4.15;100.00
43683;BME280;29285;52.128;21.060;2023-02-13T00:51:09;102000.60;;;4.20;100.00
43683;BME280;29285;52.128;21.060;2023-02-13T00:56:10;102008.66;;;4.24;100.00
43683;BME280;29285;52.128;21.060;2023-02-13T01:01:11;102011.68;;;4.27;100.00
43683;BME280;29285;52.128;21.060;2023-02-13T01:06:12;102010.03;;;4.29;100.00
43683;BME280;29285;52.128;21.060;2023-02-13T01:11:13;102008.55;;;4.30;100.00
43683;BME280;29285;52.128;21.060;2023-02-13T01:16:14;102004.07;;;4.31;100.00
43683;BME280;29285;52.128;21.060;2023-02-13T01:21:18;101991.09;;;4.32;100.00
43683;BME280;29285;52.128;21.060;2023-02-13T01:26:20;101989.83;;;4.36;100.00
43683;BME280;29285;52.128;21.060;2023-02-13T01:31:22;101993.91;;;4.39;100.00
43683;BME280;29285;52.128;21.060;2023-02-13T01:36:23;101997.35;;;4.40;100.00
43683;BME280;29285;52.128;21.060;2023-02-13T01:41:25;101993.56;;;4.40;100.00
43683;BME280;29285;52.128;21.060;2023-02-13T01:46:34;101987.85;;;4.38;100.00
43683;BME280;29285;52.128;21.060;2023-02-13T01:51:36;101990.08;;;4.37;100.00
43683;BME280;29285;52.128;21.060;2023-02-13T01:56:41;101984.52;;;4.42;100.00
43683;BME280;29285;52.128;21.060;2023-02-13T02:01:43;101991.80;;;4.48;100.00
43683;BME280;29285;52.128;21.060;2023-02-13T02:06:45;101990.01;;;4.50;100.00
43683;BME280;29285;52.128;21.060;2023-02-13T02:17:08;101990.56;;;4.52;100.00
43683;BME280;29285;52.128;21.060;2023-02-13T02:33:11;101989.83;;;4.55;100.00
43683;BME280;29285;52.128;21.060;2023-02-13T02:43:47;101982.49;;;4.57;100.00
43683;BME280;29285;52.128;21.060;2023-02-13T02:48:54;101983.35;;;4.56;100.00
43683;BME280;29285;52.128;21.060;2023-02-13T02:59:40;101994.86;;;4.56;100.00
43683;BME280;29285;52.128;21.060;2023-02-13T03:05:02;101997.67;;;4.58;100.00
43683;BME280;29285;52.128;21.060;2023-02-13T03:10:26;101997.61;;;4.56;100.00
43683;BME280;29285;52.128;21.060;2023-02-13T03:15:48;102000.39;;;4.57;100.00
43683;BME280;29285;52.128;21.060;2023-02-13T03:21:15;101992.50;;;4.53;100.00
43683;BME280;29285;52.128;21.060;2023-02-13T03:26:43;101991.83;;;4.53;100.00
43683;BME280;29285;52.128;21.060;2023-02-13T03:31:53;101993.73;;;4.54;100.00
43683;BME280;29285;52.128;21.060;2023-02-13T03:37:01;101989.92;;;4.53;100.00
43683;BME280;29285;52.128;21.060;2023-02-13T03:42:36;101983.42;;;4.49;100.00
43683;BME280;29285;52.128;21.060;2023-02-13T03:47:38;101983.57;;;4.48;100.00
43683;BME280;29285;52.128;21.060;2023-02-13T03:57:40;101984.86;;;4.50;100.00
43683;BME280;29285;52.128;21.060;2023-02-13T04:03:05;101981.56;;;4.50;100.00
43683;BME280;29285;52.128;21.060;2023-02-13T04:08:08;101985.48;;;4.49;100.00
43683;BME280;29285;52.128;21.060;2023-02-13T04:13:25;101988.73;;;4.53;100.00
43683;BME280;29285;52.128;21.060;2023-02-13T04:18:28;101990.03;;;4.56;100.00
43683;BME280;29285;52.128;21.060;2023-02-13T04:23:29;101982.30;;;4.56;100.00
43683;BME280;29285;52.128;21.060;2023-02-13T04:28:30;101972.80;;;4.60;100.00
43683;BME280;29285;52.128;21.060;2023-02-13T04:33:31;101974.77;;;4.62;100.00
43683;BME280;29285;52.128;21.060;2023-02-13T04:38:32;101983.31;;;4.60;100.00
43683;BME280;29285;52.128;21.060;2023-02-13T04:43:33;101980.25;;;4.57;100.00
43683;BME280;29285;52.128;21.060;2023-02-13T04:48:34;101982.20;;;4.53;100.00
43683;BME280;29285;52.128;21.060;2023-02-13T04:53:35;101981.11;;;4.52;100.00
43683;BME280;29285;52.128;21.060;2023-02-13T04:58:36;101978.60;;;4.54;100.00
43683;BME280;29285;52.128;21.060;2023-02-13T05:03:37;101979.63;;;4.54;100.00
43683;BME280;29285;52.128;21.060;2023-02-13T05:08:38;101979.65;;;4.54;100.00
43683;BME280;29285;52.128;21.060;2023-02-13T05:13:39;101970.02;;;4.59;100.00
43683;BME280;29285;52.128;21.060;2023-02-13T05:18:40;101973.96;;;4.63;100.00
43683;BME280;29285;52.128;21.060;2023-02-13T05:23:41;101977.39;;;4.64;100.00
43683;BME280;29285;52.128;21.060;2023-02-13T05:28:42;101978.23;;;4.63;100.00
43683;BME280;29285;52.128;21.060;2023-02-13T05:34:01;101980.50;;;4.64;100.00
43683;BME280;29285;52.128;21.060;2023-02-13T05:39:02;101983.38;;;4.62;100.00
43683;BME280;29285;52.128;21.060;2023-02-13T05:44:04;101986.99;;;4.63;100.00
43683;BME280;29285;52.128;21.060;2023-02-13T05:49:05;101992.91;;;4.65;100.00
43683;BME280;29285;52.128;21.060;2023-02-13T05:54:05;101993.55;;;4.69;100.00
43683;BME280;29285;52.128;21.060;2023-02-13T05:59:06;102002.60;;;4.71;100.00
43683;BME280;29285;52.128;21.060;2023-02-13T06:04:07;102006.09;;;4.73;100.00
43683;BME280;29285;52.128;21.060;2023-02-13T06:09:08;102010.10;;;4.75;100.00
43683;BME280;29285;52.128;21.060;2023-02-13T06:14:09;102009.64;;;4.76;100.00
43683;BME280;29285;52.128;21.060;2023-02-13T06:19:10;102003.63;;;4.76;100.00
43683;BME280;29285;52.128;21.060;2023-02-13T06:24:11;102002.65;;;4.78;100.00
43683;BME280;29285;52.128;21.060;2023-02-13T06:29:12;101997.67;;;4.79;100.00
43683;BME280;29285;52.128;21.060;2023-02-13T06:34:13;101999.54;;;4.78;100.00
43683;BME280;29285;52.128;21.060;2023-02-13T06:39:14;102007.02;;;4.75;100.00
43683;BME280;29285;52.128;21.060;2023-02-13T06:44:15;102009.56;;;4.74;100.00
43683;BME280;29285;52.128;21.060;2023-02-13T06:49:16;102010.34;;;4.72;100.00
43683;BME280;29285;52.128;21.060;2023-02-13T06:54:16;102010.71;;;4.72;100.00
43683;BME280;29285;52.128;21.060;2023-02-13T06:59:17;102011.17;;;4.76;100.00
43683;BME280;29285;52.128;21.060;2023-02-13T07:04:18;102016.14;;;4.80;100.00
43683;BME280;29285;52.128;21.060;2023-02-13T07:09:20;102018.33;;;4.84;100.00
43683;BME280;29285;52.128;21.060;2023-02-13T07:14:21;102012.98;;;4.84;100.00
43683;BME280;29285;52.128;21.060;2023-02-13T07:19:22;102001.15;;;4.84;100.00
43683;BME280;29285;52.128;21.060;2023-02-13T07:24:23;101994.27;;;4.89;100.00
43683;BME280;29285;52.128;21.060;2023-02-13T07:29:24;101999.58;;;4.94;100.00
43683;BME280;29285;52.128;21.060;2023-02-13T07:34:25;101999.61;;;5.00;100.00
43683;BME280;29285;52.128;21.060;2023-02-13T07:39:26;101997.27;;;5.07;100.00
43683;BME280;29285;52.128;21.060;2023-02-13T07:44:27;102001.59;;;5.18;100.00
43683;BME280;29285;52.128;21.060;2023-02-13T07:49:28;102014.33;;;5.24;100.00
43683;BME280;29285;52.128;21.060;2023-02-13T07:54:29;102018.21;;;5.32;100.00
43683;BME280;29285;52.128;21.060;2023-02-13T07:59:30;102011.02;;;5.39;100.00
43683;BME280;29285;52.128;21.060;2023-02-13T08:04:31;102010.19;;;5.45;100.00
43683;BME280;29285;52.128;21.060;2023-02-13T08:09:32;102008.26;;;5.50;100.00
43683;BME280;29285;52.128;21.060;2023-02-13T08:14:52;102013.25;;;5.50;100.00
43683;BME280;29285;52.128;21.060;2023-02-13T08:19:53;102002.93;;;5.50;100.00
43683;BME280;29285;52.128;21.060;2023-02-13T08:24:54;102004.14;;;5.50;100.00
43683;BME280;29285;52.128;21.060;2023-02-13T08:29:56;101994.33;;;5.50;100.00
43683;BME280;29285;52.128;21.060;2023-02-13T08:34:57;101996.08;;;5.51;100.00
43683;BME280;29285;52.128;21.060;2023-02-13T08:39:58;101993.20;;;5.52;100.00
43683;BME280;29285;52.128;21.060;2023-02-13T08:44:58;101986.30;;;5.58;100.00
43683;BME280;29285;52.128;21.060;2023-02-13T08:50:00;101979.02;;;5.68;100.00
43683;BME280;29285;52.128;21.060;2023-02-13T08:55:01;101982.31;;;5.80;100.00
43683;BME280;29285;52.128;21.060;2023-02-13T09:00:03;101983.81;;;5.90;100.00
43683;BME280;29285;52.128;21.060;2023-02-13T09:05:04;101975.21;;;5.90;100.00
43683;BME280;29285;52.128;21.060;2023-02-13T09:10:05;101977.98;;;5.97;100.00
43683;BME280;29285;52.128;21.060;2023-02-13T09:15:06;101979.59;;;6.04;100.00
43683;BME280;29285;52.128;21.060;2023-02-13T09:20:07;101972.80;;;6.07;100.00
43683;BME280;29285;52.128;21.060;2023-02-13T09:25:08;101982.13;;;6.08;100.00
43683;BME280;29285;52.128;21.060;2023-02-13T09:30:09;101979.96;;;6.04;100.00
43683;BME280;29285;52.128;21.060;2023-02-13T09:35:11;101983.17;;;5.97;100.00
43683;BME280;29285;52.128;21.060;2023-02-13T09:40:22;101981.85;;;5.93;100.00
43683;BME280;29285;52.128;21.060;2023-02-13T09:45:25;101987.57;;;5.89;100.00
43683;BME280;29285;52.128;21.060;2023-02-13T09:50:28;101979.35;;;5.84;100.00
43683;BME280;29285;52.128;21.060;2023-02-13T09:55:34;101977.76;;;5.83;100.00
43683;BME280;29285;52.128;21.060;2023-02-13T10:00:45;101982.80;;;5.84;100.00
43683;BME280;29285;52.128;21.060;2023-02-13T10:05:53;101985.73;;;5.85;100.00
43683;BME280;29285;52.128;21.060;2023-02-13T10:16:21;101991.05;;;5.90;100.00
43683;BME280;29285;52.128;21.060;2023-02-13T10:21:27;101993.69;;;5.92;100.00
43683;BME280;29285;52.128;21.060;2023-02-13T10:26:33;101995.66;;;5.88;100.00
43683;BME280;29285;52.128;21.060;2023-02-13T10:31:45;101999.69;;;5.91;100.00
43683;BME280;29285;52.128;21.060;2023-02-13T10:36:47;101996.10;;;5.91;100.00
43683;BME280;29285;52.128;21.060;2023-02-13T10:41:57;101990.05;;;5.91;100.00
43683;BME280;29285;52.128;21.060;2023-02-13T10:47:20;101986.90;;;5.95;100.00
43683;BME280;29285;52.128;21.060;2023-02-13T11:02:32;101957.50;;;5.91;100.00
43683;BME280;29285;52.128;21.060;2023-02-13T11:07:35;101961.00;;;5.87;100.00
43683;BME280;29285;52.128;21.060;2023-02-13T11:12:36;101954.82;;;5.88;100.00
43683;BME280;29285;52.128;21.060;2023-02-13T11:17:39;101953.82;;;5.89;100.00
43683;BME280;29285;52.128;21.060;2023-02-13T11:22:40;101958.75;;;5.87;100.00
43683;BME280;29285;52.128;21.060;2023-02-13T11:27:45;101948.39;;;5.86;100.00
43683;BME280;29285;52.128;21.060;2023-02-13T11:32:58;101950.79;;;5.85;100.00
43683;BME280;29285;52.128;21.060;2023-02-13T11:43:26;101949.63;;;5.93;100.00
43683;BME280;29285;52.128;21.060;2023-02-13T11:48:28;101932.89;;;5.98;100.00
43683;BME280;29285;52.128;21.060;2023-02-13T11:53:37;101927.15;;;6.03;100.00
43683;BME280;29285;52.128;21.060;2023-02-13T11:58:39;101918.27;;;5.99;100.00
43683;BME280;29285;52.128;21.060;2023-02-13T12:03:40;101913.51;;;5.95;100.00
43683;BME280;29285;52.128;21.060;2023-02-13T12:08:42;101913.20;;;5.96;100.00
43683;BME280;29285;52.128;21.060;2023-02-13T12:13:44;101901.54;;;5.99;100.00
43683;BME280;29285;52.128;21.060;2023-02-13T12:18:48;101898.86;;;6.01;100.00
43683;BME280;29285;52.128;21.060;2023-02-13T12:23:56;101880.42;;;6.01;100.00
43683;BME280;29285;52.128;21.060;2023-02-13T12:34:14;101881.34;;;6.08;100.00
43683;BME280;29285;52.128;21.060;2023-02-13T12:54:58;101868.52;;;6.18;100.00
43683;BME280;29285;52.128;21.060;2023-02-13T13:30:46;101813.86;;;6.17;100.00
43683;BME280;29285;52.128;21.060;2023-02-13T13:41:00;101825.50;;;6.14;100.00
43683;BME280;29285;52.128;21.060;2023-02-13T13:46:47;101828.48;;;6.10;100.00
43683;BME280;29285;52.128;21.060;2023-02-13T13:51:29;101827.02;;;6.01;100.00
43683;BME280;29285;52.128;21.060;2023-02-13T14:01:57;101834.63;;;5.96;100.00
43683;BME280;29285;52.128;21.060;2023-02-13T14:07:14;101815.39;;;5.92;100.00
43683;BME280;29285;52.128;21.060;2023-02-13T14:22:44;101823.95;;;5.96;100.00
43683;BME280;29285;52.128;21.060;2023-02-13T14:27:54;101804.71;;;5.98;100.00
43683;BME280;29285;52.128;21.060;2023-02-13T14:32:56;101793.23;;;5.94;100.00
43683;BME280;29285;52.128;21.060;2023-02-13T14:38:00;101793.73;;;5.93;100.00
43683;BME280;29285;52.128;21.060;2023-02-13T14:43:22;101798.67;;;5.91;100.00
43683;BME280;29285;52.128;21.060;2023-02-13T14:48:31;101812.84;;;5.93;100.00
43683;BME280;29285;52.128;21.060;2023-02-13T14:53:42;101803.73;;;5.94;100.00
43683;BME280;29285;52.128;21.060;2023-02-13T14:58:58;101797.88;;;5.94;100.00
43683;BME280;29285;52.128;21.060;2023-02-13T15:04:11;101807.46;;;5.91;100.00
43683;BME280;29285;52.128;21.060;2023-02-13T15:09:26;101799.02;;;5.91;100.00
43683;BME280;29285;52.128;21.060;2023-02-13T15:14:30;101796.08;;;5.91;100.00
43683;BME280;29285;52.128;21.060;2023-02-13T15:19:33;101788.27;;;5.89;100.00
43683;BME280;29285;52.128;21.060;2023-02-13T15:24:43;101789.44;;;5.87;100.00
43683;BME280;29285;52.128;21.060;2023-02-13T15:29:52;101771.84;;;5.86;100.00
43683;BME280;29285;52.128;21.060;2023-02-13T15:34:53;101763.16;;;5.83;100.00
43683;BME280;29285;52.128;21.060;2023-02-13T15:39:55;101753.79;;;5.81;100.00
43683;BME280;29285;52.128;21.060;2023-02-13T15:45:13;101741.05;;;5.81;100.00
43683;BME280;29285;52.128;21.060;2023-02-13T15:55:22;101762.82;;;5.77;100.00
43683;BME280;29285;52.128;21.060;2023-02-13T16:00:25;101769.16;;;5.76;100.00
43683;BME280;29285;52.128;21.060;2023-02-13T16:05:27;101791.19;;;5.75;100.00
43683;BME280;29285;52.128;21.060;2023-02-13T16:10:33;101789.46;;;5.75;100.00
43683;BME280;29285;52.128;21.060;2023-02-13T16:15:35;101786.83;;;5.74;100.00
43683;BME280;29285;52.128;21.060;2023-02-13T16:20:36;101790.13;;;5.75;100.00
43683;BME280;29285;52.128;21.060;2023-02-13T16:25:39;101782.84;;;5.73;100.00
43683;BME280;29285;52.128;21.060;2023-02-13T16:30:44;101782.67;;;5.73;100.00
43683;BME280;29285;52.128;21.060;2023-02-13T16:40:48;101795.47;;;5.75;100.00
43683;BME280;29285;52.128;21.060;2023-02-13T16:45:49;101792.59;;;5.77;100.00
43683;BME280;29285;52.128;21.060;2023-02-13T16:50:54;101788.83;;;5.77;100.00
43683;BME280;29285;52.128;21.060;2023-02-13T16:55:56;101797.99;;;5.79;100.00
43683;BME280;29285;52.128;21.060;2023-02-13T17:00:58;101801.26;;;5.79;100.00
43683;BME280;29285;52.128;21.060;2023-02-13T17:06:01;101800.34;;;5.76;100.00
43683;BME280;29285;52.128;21.060;2023-02-13T17:11:04;101796.90;;;5.77;100.00
43683;BME280;29285;52.128;21.060;2023-02-13T17:16:06;101797.14;;;5.73;100.00
43683;BME280;29285;52.128;21.060;2023-02-13T17:21:08;101805.36;;;5.71;100.00
43683;BME280;29285;52.128;21.060;2023-02-13T17:26:09;101803.31;;;5.72;100.00
43683;BME280;29285;52.128;21.060;2023-02-13T17:31:10;101801.23;;;5.71;100.00
43683;BME280;29285;52.128;21.060;2023-02-13T17:36:11;101791.05;;;5.71;100.00
43683;BME280;29285;52.128;21.060;2023-02-13T17:41:13;101795.63;;;5.68;100.00
43683;BME280;29285;52.128;21.060;2023-02-13T17:46:14;101799.89;;;5.66;100.00
43683;BME280;29285;52.128;21.060;2023-02-13T17:51:16;101797.98;;;5.66;100.00
43683;BME280;29285;52.128;21.060;2023-02-13T17:56:17;101805.78;;;5.67;100.00
43683;BME280;29285;52.128;21.060;2023-02-13T18:01:18;101815.83;;;5.69;100.00
43683;BME280;29285;52.128;21.060;2023-02-13T18:06:19;101821.08;;;5.73;100.00
43683;BME280;29285;52.128;21.060;2023-02-13T18:11:20;101819.89;;;5.73;100.00
43683;BME280;29285;52.128;21.060;2023-02-13T18:16:21;101830.22;;;5.74;100.00
43683;BME280;29285;52.128;21.060;2023-02-13T18:21:24;101838.27;;;5.72;100.00
43683;BME280;29285;52.128;21.060;2023-02-13T18:26:26;101849.99;;;5.72;100.00
43683;BME280;29285;52.128;21.060;2023-02-13T18:31:27;101841.87;;;5.70;100.00
43683;BME280;29285;52.128;21.060;2023-02-13T18:36:29;101841.98;;;5.94;100.00
43683;BME280;29285;52.128;21.060;2023-02-13T18:41:30;101847.03;;;6.34;100.00
43683;BME280;29285;52.128;21.060;2023-02-13T18:46:31;101847.21;;;6.35;100.00
43683;BME280;29285;52.128;21.060;2023-02-13T18:51:32;101833.33;;;6.24;100.00
43683;BME280;29285;52.128;21.060;2023-02-13T18:56:33;101838.52;;;6.12;100.00
43683;BME280;29285;52.128;21.060;2023-02-13T19:01:35;101840.48;;;6.02;100.00
43683;BME280;29285;52.128;21.060;2023-02-13T19:06:37;101844.02;;;5.93;100.00
43683;BME280;29285;52.128;21.060;2023-02-13T19:11:39;101847.41;;;5.84;100.00
43683;BME280;29285;52.128;21.060;2023-02-13T19:16:41;101846.22;;;5.78;100.00
43683;BME280;29285;52.128;21.060;2023-02-13T19:21:42;101852.44;;;5.73;100.00
43683;BME280;29285;52.128;21.060;2023-02-13T19:26:43;101846.25;;;5.67;100.00
43683;BME280;29285;52.128;21.060;2023-02-13T19:31:44;101850.98;;;5.64;100.00
43683;BME280;29285;52.128;21.060;2023-02-13T19:36:45;101852.41;;;5.60;100.00
43683;BME280;29285;52.128;21.060;2023-02-13T19:41:46;101851.80;;;5.57;100.00
43683;BME280;29285;52.128;21.060;2023-02-13T19:46:47;101870.89;;;5.56;100.00
43683;BME280;29285;52.128;21.060;2023-02-13T19:51:48;101874.17;;;5.57;100.00
43683;BME280;29285;52.128;21.060;2023-02-13T19:56:49;101876.21;;;5.55;100.00
43683;BME280;29285;52.128;21.060;2023-02-13T20:01:50;101878.05;;;5.53;100.00
43683;BME280;29285;52.128;21.060;2023-02-13T20:06:51;101873.92;;;5.48;100.00
43683;BME280;29285;52.128;21.060;2023-02-13T20:11:57;101871.76;;;5.44;100.00
43683;BME280;29285;52.128;21.060;2023-02-13T20:16:58;101872.90;;;5.42;100.00
43683;BME280;29285;52.128;21.060;2023-02-13T20:21:59;101872.56;;;5.42;100.00
43683;BME280;29285;52.128;21.060;2023-02-13T20:27:01;101878.64;;;5.44;100.00
43683;BME280;29285;52.128;21.060;2023-02-13T20:32:02;101876.54;;;5.43;100.00
43683;BME280;29285;52.128;21.060;2023-02-13T20:37:03;101868.45;;;5.37;100.00
43683;BME280;29285;52.128;21.060;2023-02-13T20:42:04;101868.71;;;5.34;100.00
43683;BME280;29285;52.128;21.060;2023-02-13T20:47:06;101863.61;;;5.31;100.00
43683;BME280;29285;52.128;21.060;2023-02-13T20:52:07;101857.66;;;5.27;100.00
43683;BME280;29285;52.128;21.060;2023-02-13T20:57:08;101854.45;;;5.24;100.00
43683;BME280;29285;52.128;21.060;2023-02-13T21:02:10;101850.54;;;5.20;100.00
43683;BME280;29285;52.128;21.060;2023-02-13T21:07:11;101851.89;;;5.19;100.00
43683;BME280;29285;52.128;21.060;2023-02-13T21:12:12;101849.14;;;5.19;100.00
43683;BME280;29285;52.128;21.060;2023-02-13T21:17:14;101847.32;;;5.15;100.00
43683;BME280;29285;52.128;21.060;2023-02-13T21:22:15;101848.52;;;5.15;100.00
43683;BME280;29285;52.128;21.060;2023-02-13T21:27:15;101848.02;;;5.16;100.00
43683;BME280;29285;52.128;21.060;2023-02-13T21:32:17;101841.79;;;5.14;100.00
43683;BME280;29285;52.128;21.060;2023-02-13T21:37:18;101848.02;;;5.16;100.00
43683;BME280;29285;52.128;21.060;2023-02-13T21:42:19;101849.79;;;5.17;100.00
43683;BME280;29285;52.128;21.060;2023-02-13T21:47:20;101854.65;;;5.19;100.00
43683;BME280;29285;52.128;21.060;2023-02-13T21:52:21;101852.11;;;5.20;100.00
43683;BME280;29285;52.128;21.060;2023-02-13T21:57:23;101843.88;;;5.22;100.00
43683;BME280;29285;52.128;21.060;2023-02-13T22:02:24;101838.60;;;5.23;100.00
43683;BME280;29285;52.128;21.060;2023-02-13T22:07:26;101839.19;;;5.20;100.00
43683;BME280;29285;52.128;21.060;2023-02-13T22:12:27;101841.93;;;5.20;100.00
43683;BME280;29285;52.128;21.060;2023-02-13T22:17:29;101840.21;;;5.20;100.00
43683;BME280;29285;52.128;21.060;2023-02-13T22:22:34;101838.54;;;5.15;100.00
43683;BME280;29285;52.128;21.060;2023-02-13T22:27:34;101842.66;;;5.15;100.00
43683;BME280;29285;52.128;21.060;2023-02-13T22:32:37;101848.13;;;5.13;100.00
43683;BME280;29285;52.128;21.060;2023-02-13T22:37:38;101847.35;;;5.11;100.00
43683;BME280;29285;52.128;21.060;2023-02-13T22:42:39;101850.74;;;5.09;100.00
43683;BME280;29285;52.128;21.060;2023-02-13T22:47:39;101849.73;;;5.10;100.00
43683;BME280;29285;52.128;21.060;2023-02-13T22:52:40;101844.75;;;5.10;100.00
43683;BME280;29285;52.128;21.060;2023-02-13T22:57:41;101844.42;;;5.11;100.00
43683;BME280;29285;52.128;21.060;2023-02-13T23:02:42;101841.60;;;5.08;100.00
43683;BME280;29285;52.128;21.060;2023-02-13T23:07:43;101834.65;;;5.06;100.00
43683;BME280;29285;52.128;21.060;2023-02-13T23:12:44;101824.07;;;5.03;100.00
43683;BME280;29285;52.128;21.060;2023-02-13T23:17:45;101843.96;;;5.01;100.00
43683;BME280;29285;52.128;21.060;2023-02-13T23:23:05;101842.36;;;5.00;100.00
43683;BME280;29285;52.128;21.060;2023-02-13T23:28:06;101843.42;;;5.00;100.00
43683;BME280;29285;52.128;21.060;2023-02-13T23:33:07;101856.40;;;4.97;100.00
43683;BME280;29285;52.128;21.060;2023-02-13T23:38:08;101860.70;;;4.97;100.00
43683;BME280;29285;52.128;21.060;2023-02-13T23:43:09;101860.56;;;4.98;100.00
43683;BME280;29285;52.128;21.060;2023-02-13T23:48:10;101851.82;;;5.00;100.00
43683;BME280;29285;52.128;21.060;2023-02-13T23:53:12;101843.19;;;4.98;100.00
43683;BME280;29285;52.128;21.060;2023-02-13T23:58:14;101843.77;;;4.94;100.00
